createdAt,value
2023-05-05T00:00:58.630Z,1.50
2023-05-05T00:04:57.903Z,1.70
2023-05-05T00:08:58.040Z,1.70
2023-05-05T00:12:57.895Z,1.70
2023-05-05T00:16:58.008Z,1.60
2023-05-05T00:24:58.208Z,1.30
2023-05-05T00:28:58.035Z,1.60
2023-05-05T00:32:58.060Z,1.70
2023-05-05T00:36:57.967Z,1.60
2023-05-05T00:40:58.140Z,1.40
2023-05-05T00:44:58.183Z,1.30
2023-05-05T00:48:59.621Z,1.30
2023-05-05T00:53:00.520Z,1.50
2023-05-05T00:56:58.191Z,1.30
2023-05-05T01:00:58.109Z,1.20
2023-05-05T01:04:58.359Z,1.00
2023-05-05T01:09:04.313Z,1.30
2023-05-05T01:13:11.782Z,1.40
2023-05-05T01:17:03.381Z,1.40
2023-05-05T01:21:03.473Z,1.10
2023-05-05T01:25:13.796Z,1.40
2023-05-05T01:29:06.010Z,1.30
2023-05-05T01:33:04.468Z,1.40
2023-05-05T01:37:04.374Z,1.40
2023-05-05T01:41:04.511Z,1.20
2023-05-05T01:45:02.464Z,1.30
2023-05-05T01:48:58.383Z,1.40
2023-05-05T01:57:01.075Z,1.50
2023-05-05T02:00:59.545Z,1.90
2023-05-05T02:04:59.636Z,2.00
2023-05-05T02:09:00.417Z,1.50
2023-05-05T02:13:00.688Z,1.60
2023-05-05T02:16:58.788Z,1.70
2023-05-05T02:20:58.508Z,1.40
2023-05-05T02:29:02.973Z,2.00
2023-05-05T02:33:05.267Z,1.60
2023-05-05T02:37:04.693Z,2.00
2023-05-05T02:41:00.684Z,1.80
2023-05-05T02:45:03.458Z,2.10
2023-05-05T02:48:58.762Z,1.50
2023-05-05T02:56:59.495Z,1.90
2023-05-05T03:01:07.431Z,1.80
2023-05-05T03:09:06.480Z,1.70
2023-05-05T03:13:00.463Z,2.10
2023-05-05T03:17:00.623Z,1.80
2023-05-05T03:21:07.547Z,2.30
2023-05-05T03:24:58.548Z,2.30
2023-05-05T03:28:58.853Z,2.10
2023-05-05T03:32:58.711Z,2.20
2023-05-05T03:36:58.499Z,2.20
2023-05-05T03:41:00.544Z,2.10
2023-05-05T03:44:58.487Z,2.30
2023-05-05T03:52:58.727Z,2.60
2023-05-05T04:00:59.000Z,2.20
2023-05-05T04:04:58.719Z,2.20
2023-05-05T04:08:58.801Z,2.30
2023-05-05T04:16:58.979Z,2.40
2023-05-05T04:20:58.635Z,2.70
2023-05-05T04:24:58.956Z,2.50
2023-05-05T04:28:58.834Z,2.30
2023-05-05T04:32:58.851Z,2.40
2023-05-05T04:36:58.805Z,2.60
2023-05-05T04:44:58.928Z,2.90
2023-05-05T04:48:58.786Z,3.20
2023-05-05T04:52:58.796Z,3.40
2023-05-05T05:00:59.018Z,3.80
2023-05-05T05:08:58.800Z,4.30
2023-05-05T05:12:58.859Z,3.70
2023-05-05T05:20:58.953Z,4.20
2023-05-05T05:24:58.922Z,4.10
2023-05-05T05:32:59.251Z,4.00
2023-05-05T05:36:59.231Z,4.00
2023-05-05T05:40:59.268Z,3.90
2023-05-05T05:44:58.925Z,3.50
2023-05-05T05:48:59.118Z,3.60
2023-05-05T05:56:59.252Z,3.40
2023-05-05T06:00:59.323Z,3.60
2023-05-05T06:04:58.865Z,2.90
2023-05-05T06:08:58.989Z,3.00
2023-05-05T06:12:59.114Z,3.20
2023-05-05T06:16:59.002Z,2.90
2023-05-05T06:20:59.405Z,3.20
2023-05-05T06:28:59.098Z,3.30
2023-05-05T06:32:59.203Z,3.20
2023-05-05T06:36:59.140Z,3.20
2023-05-05T06:40:59.190Z,2.90
2023-05-05T06:44:59.182Z,3.20
2023-05-05T06:48:58.975Z,3.30
2023-05-05T06:53:00.388Z,2.50
2023-05-05T06:56:59.676Z,3.30
2023-05-05T07:00:59.243Z,4.00
2023-05-05T07:04:59.049Z,4.10
2023-05-05T07:08:59.329Z,3.80
2023-05-05T07:12:59.206Z,3.80
2023-05-05T07:16:59.252Z,3.10
2023-05-05T07:21:00.322Z,3.30
2023-05-05T07:24:59.470Z,2.60
2023-05-05T07:28:59.230Z,3.10
2023-05-05T07:32:59.336Z,2.70
2023-05-05T07:36:59.197Z,2.20
2023-05-05T07:40:59.353Z,3.10
2023-05-05T07:44:59.727Z,2.90
2023-05-05T07:48:59.370Z,2.90
2023-05-05T07:53:10.800Z,3.10
2023-05-05T07:56:59.450Z,2.70
2023-05-05T08:01:00.342Z,2.80
2023-05-05T08:04:59.730Z,2.80
2023-05-05T08:08:59.926Z,2.40
2023-05-05T08:12:59.910Z,2.30
2023-05-05T08:16:59.551Z,1.80
2023-05-05T08:20:59.478Z,2.40
2023-05-05T08:24:59.656Z,2.60
2023-05-05T08:29:00.146Z,2.60
2023-05-05T08:32:59.673Z,2.30
2023-05-05T08:36:59.626Z,1.80
2023-05-05T08:40:59.316Z,1.20
2023-05-05T08:44:59.696Z,1.30
2023-05-05T08:49:02.809Z,1.60
2023-05-05T08:53:08.361Z,1.70
2023-05-05T08:57:01.052Z,1.70
2023-05-05T09:01:00.575Z,1.60
2023-05-05T09:05:04.009Z,1.90
2023-05-05T09:09:00.261Z,1.70
2023-05-05T09:12:59.609Z,1.90
2023-05-05T09:17:02.187Z,2.00
2023-05-05T09:20:59.725Z,2.10
2023-05-05T09:24:59.815Z,2.30
2023-05-05T09:29:00.474Z,1.80
2023-05-05T09:33:01.265Z,1.90
2023-05-05T09:36:59.721Z,2.20
2023-05-05T09:40:59.796Z,2.20
2023-05-05T09:45:00.027Z,2.00
2023-05-05T09:49:11.496Z,1.90
2023-05-05T09:53:02.024Z,2.10
2023-05-05T09:56:59.732Z,2.10
2023-05-05T10:00:59.735Z,2.30
2023-05-05T10:05:05.494Z,2.20
2023-05-05T10:09:00.638Z,2.80
2023-05-05T10:13:00.876Z,2.10
2023-05-05T10:17:00.745Z,1.80
2023-05-05T10:21:02.720Z,1.80
2023-05-05T10:25:04.547Z,1.80
2023-05-05T10:29:04.132Z,2.00
2023-05-05T10:33:22.123Z,2.20
2023-05-05T10:36:59.919Z,2.20
2023-05-05T10:44:59.888Z,2.00
2023-05-05T10:49:11.638Z,2.20
2023-05-05T10:53:09.011Z,2.10
2023-05-05T10:57:01.570Z,2.40
2023-05-05T11:01:00.373Z,2.40
2023-05-05T11:05:03.813Z,2.00
2023-05-05T11:09:19.720Z,2.20
2023-05-05T11:13:18.503Z,1.90
2023-05-05T11:17:00.538Z,1.90
2023-05-05T11:21:03.604Z,1.70
2023-05-05T11:25:00.254Z,1.70
2023-05-05T11:29:02.193Z,1.80
2023-05-05T11:33:19.721Z,1.40
2023-05-05T11:37:01.704Z,1.70
2023-05-05T11:41:09.962Z,1.30
2023-05-05T11:45:00.335Z,1.70
2023-05-05T11:48:59.904Z,1.90
2023-05-05T11:53:00.629Z,1.50
2023-05-05T11:57:04.087Z,1.80
2023-05-05T12:01:04.325Z,1.70
2023-05-05T12:05:00.611Z,1.60
2023-05-05T12:09:00.172Z,2.10
2023-05-05T12:12:59.954Z,1.60
2023-05-05T12:17:06.147Z,1.90
2023-05-05T12:21:00.304Z,2.10
2023-05-05T12:25:01.403Z,1.90
2023-05-05T12:29:01.923Z,2.20
2023-05-05T12:33:01.008Z,2.20
2023-05-05T12:37:00.527Z,1.70
2023-05-05T12:41:01.394Z,1.90
2023-05-05T12:45:00.063Z,1.90
2023-05-05T12:49:03.623Z,2.20
2023-05-05T12:53:00.171Z,2.00
2023-05-05T12:57:10.359Z,1.90
2023-05-05T13:01:07.761Z,2.00
2023-05-05T13:05:00.403Z,2.00
2023-05-05T13:09:00.120Z,2.00
2023-05-05T13:13:00.462Z,1.80
2023-05-05T13:17:00.195Z,2.00
2023-05-05T13:21:00.142Z,2.10
2023-05-05T13:29:00.312Z,2.30
2023-05-05T13:33:02.277Z,1.90
2023-05-05T13:37:00.296Z,2.40
2023-05-05T13:41:00.227Z,1.70
2023-05-05T13:45:00.342Z,1.90
2023-05-05T13:49:00.412Z,2.30
2023-05-05T13:53:00.366Z,1.80
2023-05-05T13:57:00.233Z,1.90
2023-05-05T14:01:00.430Z,2.00
2023-05-05T14:05:00.354Z,2.00
2023-05-05T14:09:00.654Z,2.00
2023-05-05T14:13:00.329Z,1.80
2023-05-05T14:17:00.435Z,2.10
2023-05-05T14:21:00.279Z,2.20
2023-05-05T14:25:00.480Z,2.20
2023-05-05T14:29:00.279Z,2.20
2023-05-05T14:33:00.445Z,1.80
2023-05-05T14:37:00.326Z,2.10
2023-05-05T14:41:00.494Z,1.60
2023-05-05T14:45:02.531Z,2.10
2023-05-05T14:49:00.628Z,2.20
2023-05-05T14:53:00.414Z,1.90
2023-05-05T14:57:00.701Z,2.10
2023-05-05T15:01:00.661Z,2.30
2023-05-05T15:05:00.680Z,2.40
2023-05-05T15:09:00.507Z,2.10
2023-05-05T15:13:00.601Z,2.10
2023-05-05T15:17:00.411Z,2.00
2023-05-05T15:21:00.733Z,2.60
2023-05-05T15:25:00.613Z,2.60
2023-05-05T15:29:00.644Z,2.40
2023-05-05T15:37:00.696Z,2.20
2023-05-05T15:41:00.503Z,2.00
2023-05-05T15:45:01.003Z,2.60
2023-05-05T15:49:00.647Z,2.50
2023-05-05T15:53:00.736Z,3.00
2023-05-05T15:57:02.224Z,2.20
2023-05-05T16:01:00.715Z,2.20
2023-05-05T16:05:00.615Z,3.00
2023-05-05T16:09:00.820Z,2.90
2023-05-05T16:13:00.689Z,2.60
2023-05-05T16:17:01.408Z,2.60
2023-05-05T16:21:01.588Z,2.80
2023-05-05T16:25:00.817Z,2.70
2023-05-05T16:29:00.751Z,2.50
2023-05-05T16:33:00.786Z,2.70
2023-05-05T16:37:00.696Z,2.50
2023-05-05T16:41:00.847Z,2.60
2023-05-05T16:45:00.924Z,3.10
2023-05-05T16:49:00.798Z,2.80
2023-05-05T16:53:00.732Z,2.70
2023-05-05T16:57:01.427Z,2.30
2023-05-05T17:05:01.195Z,2.60
2023-05-05T17:09:00.908Z,3.30
2023-05-05T17:13:01.091Z,2.50
2023-05-05T17:21:00.980Z,2.80
2023-05-05T17:25:01.177Z,2.90
2023-05-05T17:29:01.687Z,3.00
2023-05-05T17:33:00.932Z,2.60
2023-05-05T17:37:01.075Z,2.80
2023-05-05T17:41:01.062Z,2.50
2023-05-05T17:45:01.729Z,2.60
2023-05-05T17:49:01.769Z,3.10
2023-05-05T17:53:01.118Z,2.90
2023-05-05T17:57:01.753Z,3.20
2023-05-05T18:01:01.148Z,2.80
2023-05-05T18:05:00.977Z,2.60
2023-05-05T18:09:01.193Z,2.80
2023-05-05T18:13:01.434Z,2.80
2023-05-05T18:17:01.487Z,3.60
2023-05-05T18:21:00.975Z,2.80
2023-05-05T18:25:01.196Z,3.10
2023-05-05T18:29:01.026Z,3.50
2023-05-05T18:33:01.350Z,3.40
2023-05-05T18:37:01.068Z,3.30
2023-05-05T18:41:01.419Z,2.90
2023-05-05T18:45:01.080Z,3.20
2023-05-05T18:49:01.404Z,3.10
2023-05-05T18:53:01.264Z,3.50
2023-05-05T18:57:02.494Z,3.50
2023-05-05T19:01:01.188Z,3.10
2023-05-05T19:05:02.925Z,3.20
2023-05-05T19:09:01.099Z,3.10
2023-05-05T19:13:01.449Z,3.20
2023-05-05T19:17:01.395Z,3.50
2023-05-05T19:21:01.430Z,2.90
2023-05-05T19:25:01.177Z,3.50
2023-05-05T19:29:01.410Z,2.80
2023-05-05T19:33:01.267Z,3.50
2023-05-05T19:37:01.301Z,3.40
2023-05-05T19:41:01.236Z,3.00
2023-05-05T19:45:01.417Z,3.30
2023-05-05T19:49:01.190Z,3.40
2023-05-05T19:53:02.644Z,3.10
2023-05-05T19:57:01.260Z,3.10
2023-05-05T20:01:01.656Z,3.90
2023-05-05T20:05:01.685Z,2.90
2023-05-05T20:09:01.838Z,3.40
2023-05-05T20:13:01.293Z,3.60
2023-05-05T20:17:01.497Z,3.60
2023-05-05T20:21:02.065Z,3.40
2023-05-05T20:25:01.497Z,3.00
2023-05-05T20:29:01.553Z,3.20
2023-05-05T20:33:01.446Z,3.40
2023-05-05T20:37:01.566Z,3.30
2023-05-05T20:41:01.594Z,3.40
2023-05-05T20:45:01.808Z,2.80
2023-05-05T20:49:02.132Z,3.10
2023-05-05T20:53:01.391Z,2.90
2023-05-05T20:57:02.054Z,3.20
2023-05-05T21:01:01.573Z,3.00
2023-05-05T21:05:01.995Z,3.30
2023-05-05T21:09:01.445Z,3.20
2023-05-05T21:13:02.347Z,3.00
2023-05-05T21:17:01.574Z,2.90
2023-05-05T21:21:01.662Z,2.70
2023-05-05T21:25:12.385Z,3.70
2023-05-05T21:29:01.769Z,2.90
2023-05-05T21:33:01.558Z,3.00
2023-05-05T21:37:02.266Z,3.10
2023-05-05T21:41:02.680Z,3.20
2023-05-05T21:45:02.039Z,3.40
2023-05-05T21:49:10.839Z,3.30
2023-05-05T21:53:01.666Z,3.40
2023-05-05T21:57:01.851Z,3.60
2023-05-05T22:01:01.988Z,3.60
2023-05-05T22:05:01.586Z,3.30
2023-05-05T22:09:01.828Z,3.70
2023-05-05T22:13:01.896Z,3.60
2023-05-05T22:17:01.963Z,3.40
2023-05-05T22:21:02.514Z,3.70
2023-05-05T22:25:02.035Z,3.70
2023-05-05T22:29:01.639Z,3.60
2023-05-05T22:33:01.939Z,4.10
2023-05-05T22:37:01.904Z,3.60
2023-05-05T22:41:01.850Z,3.90
2023-05-05T22:45:01.721Z,4.00
2023-05-05T22:49:02.031Z,4.10
2023-05-05T22:53:01.760Z,3.90
2023-05-05T22:57:02.722Z,4.10
2023-05-05T23:01:01.824Z,4.70
2023-05-05T23:05:02.556Z,3.70
2023-05-05T23:09:01.770Z,3.80
2023-05-05T23:13:01.955Z,3.80
2023-05-05T23:17:02.052Z,4.60
2023-05-05T23:21:01.912Z,4.00
2023-05-05T23:25:02.267Z,4.10
2023-05-05T23:29:02.045Z,4.50
2023-05-05T23:33:02.745Z,4.20
2023-05-05T23:37:03.388Z,4.50
2023-05-05T23:45:02.224Z,4.30
2023-05-05T23:49:01.921Z,4.70
2023-05-05T23:53:02.102Z,4.70
2023-05-05T23:57:02.466Z,4.90
